createdAt,value
2018-12-12T00:02:22.182Z,8.25
2018-12-12T00:04:49.226Z,8.43
2018-12-12T00:07:16.506Z,9.40
2018-12-12T00:09:43.570Z,10.00
2018-12-12T00:12:10.739Z,10.28
2018-12-12T00:14:37.812Z,8.43
2018-12-12T00:17:04.983Z,10.90
2018-12-12T00:19:32.030Z,10.57
2018-12-12T00:24:25.790Z,7.93
2018-12-12T00:26:52.943Z,10.10
2018-12-12T00:29:19.994Z,10.43
2018-12-12T00:31:47.039Z,11.93
2018-12-12T00:34:14.096Z,11.00
2018-12-12T00:36:41.148Z,12.35
2018-12-12T00:39:08.419Z,10.15
2018-12-12T00:41:35.562Z,10.58
2018-12-12T00:44:02.818Z,11.20
2018-12-12T00:46:30.200Z,8.60
2018-12-12T00:48:57.782Z,9.58
2018-12-12T00:51:25.026Z,9.50
2018-12-12T00:53:52.071Z,9.63
2018-12-12T00:56:19.200Z,10.23
2018-12-12T00:58:46.256Z,9.45
2018-12-12T01:01:13.302Z,10.18
2018-12-12T01:03:40.467Z,9.00
2018-12-12T01:06:07.551Z,10.30
2018-12-12T01:08:34.719Z,10.08
2018-12-12T01:11:07.646Z,10.72
2018-12-12T01:13:34.701Z,10.45
2018-12-12T01:16:01.967Z,11.40
2018-12-12T01:18:29.058Z,10.50
2018-12-12T01:20:56.136Z,8.68
2018-12-12T01:23:23.210Z,9.18
2018-12-12T01:25:50.379Z,10.70
2018-12-12T01:28:17.437Z,10.13
2018-12-12T01:30:44.482Z,9.73
2018-12-12T01:33:11.544Z,9.23
2018-12-12T01:35:38.654Z,9.40
2018-12-12T01:38:05.715Z,10.78
2018-12-12T01:40:32.780Z,11.12
2018-12-12T01:42:59.934Z,9.50
2018-12-12T01:45:27.090Z,10.10
2018-12-12T01:47:54.134Z,9.05
2018-12-12T01:50:21.214Z,8.55
2018-12-12T01:52:48.255Z,10.75
2018-12-12T01:55:15.415Z,9.70
2018-12-12T01:57:42.463Z,11.53
2018-12-12T02:00:09.748Z,12.95
2018-12-12T02:02:36.814Z,11.85
2018-12-12T02:05:04.124Z,11.80
2018-12-12T02:07:31.298Z,10.53
2018-12-12T02:09:58.350Z,10.82
2018-12-12T02:12:25.434Z,10.40
2018-12-12T02:14:52.490Z,10.20
2018-12-12T02:17:19.654Z,12.00
2018-12-12T02:19:46.715Z,12.13
2018-12-12T02:22:13.782Z,12.63
2018-12-12T02:24:40.843Z,14.10
2018-12-12T02:27:07.907Z,10.88
2018-12-12T02:29:35.158Z,10.98
2018-12-12T02:32:02.346Z,11.97
2018-12-12T02:34:29.495Z,10.93
2018-12-12T02:36:56.663Z,12.45
2018-12-12T02:39:23.847Z,11.40
2018-12-12T02:41:50.958Z,11.85
2018-12-12T02:44:18.043Z,10.33
2018-12-12T02:46:45.310Z,10.95
2018-12-12T02:49:12.357Z,10.80
2018-12-12T02:51:39.411Z,10.75
2018-12-12T02:54:06.463Z,9.80
2018-12-12T02:56:33.726Z,8.30
2018-12-12T02:59:00.766Z,9.38
2018-12-12T03:01:27.808Z,10.38
2018-12-12T03:03:55.274Z,8.90
2018-12-12T03:06:22.326Z,10.18
2018-12-12T03:08:49.374Z,10.08
2018-12-12T03:11:21.174Z,8.45
2018-12-12T03:13:48.246Z,9.13
2018-12-12T03:16:15.523Z,10.15
2018-12-12T03:18:42.683Z,9.95
2018-12-12T03:21:09.960Z,10.43
2018-12-12T03:23:37.019Z,11.75
2018-12-12T03:26:04.186Z,11.27
2018-12-12T03:28:31.231Z,10.13
2018-12-12T03:30:58.291Z,10.75
2018-12-12T03:33:25.441Z,11.63
2018-12-12T03:35:52.543Z,11.12
2018-12-12T03:38:19.611Z,9.60
2018-12-12T03:40:46.892Z,11.35
2018-12-12T03:43:13.942Z,10.38
2018-12-12T03:45:41.002Z,11.55
2018-12-12T03:48:08.067Z,10.55
2018-12-12T03:50:35.239Z,10.80
2018-12-12T03:53:02.422Z,11.25
2018-12-12T03:55:29.710Z,10.90
2018-12-12T03:57:56.757Z,10.40
2018-12-12T04:00:23.828Z,9.98
2018-12-12T04:02:50.871Z,11.00
2018-12-12T04:05:17.927Z,11.40
2018-12-12T04:07:45.043Z,12.03
2018-12-12T04:10:12.304Z,10.45
2018-12-12T04:12:39.358Z,11.83
2018-12-12T04:15:06.527Z,10.28
2018-12-12T04:17:33.581Z,10.35
2018-12-12T04:20:00.731Z,11.35
2018-12-12T04:22:28.106Z,9.18
2018-12-12T04:24:55.388Z,9.60
2018-12-12T04:27:22.555Z,11.95
2018-12-12T04:29:49.712Z,11.33
2018-12-12T04:32:16.770Z,10.48
2018-12-12T04:34:43.819Z,10.68
2018-12-12T04:37:10.866Z,8.25
2018-12-12T04:39:37.924Z,11.18
2018-12-12T04:42:04.975Z,10.05
2018-12-12T04:44:32.071Z,10.03
2018-12-12T04:46:59.227Z,8.83
2018-12-12T04:49:26.382Z,9.10
2018-12-12T04:51:53.438Z,9.30
2018-12-12T04:54:20.478Z,11.38
2018-12-12T04:56:47.774Z,9.33
2018-12-12T04:59:15.129Z,9.33
2018-12-12T05:01:42.386Z,9.00
2018-12-12T05:04:09.557Z,10.80
2018-12-12T05:06:36.774Z,9.63
2018-12-12T05:09:05.550Z,10.25
2018-12-12T05:11:32.753Z,7.97
2018-12-12T05:14:00.175Z,10.20
2018-12-12T05:16:27.338Z,9.93
2018-12-12T05:18:54.391Z,11.15
2018-12-12T05:21:21.458Z,9.83
2018-12-12T05:23:48.511Z,10.93
2018-12-12T05:28:42.174Z,11.85
2018-12-12T05:31:09.251Z,11.38
2018-12-12T05:33:36.307Z,13.20
2018-12-12T05:36:03.478Z,14.30
2018-12-12T05:38:30.644Z,17.92
2018-12-12T05:40:58.287Z,16.07
2018-12-12T05:43:25.347Z,15.88
2018-12-12T05:45:52.506Z,14.30
2018-12-12T05:48:19.662Z,13.85
2018-12-12T05:50:46.770Z,16.65
2018-12-12T05:53:13.842Z,13.03
2018-12-12T05:55:40.906Z,17.35
2018-12-12T05:58:07.950Z,13.55
2018-12-12T06:00:35.607Z,20.35
2018-12-12T06:03:02.891Z,18.30
2018-12-12T06:05:29.942Z,18.60
2018-12-12T06:07:56.982Z,18.27
2018-12-12T06:10:24.142Z,21.85
2018-12-12T06:12:51.206Z,18.42
2018-12-12T06:15:18.254Z,24.65
2018-12-12T06:17:45.423Z,34.70
2018-12-12T06:20:12.775Z,24.90
2018-12-12T06:22:40.162Z,24.10
2018-12-12T06:25:07.330Z,25.37
2018-12-12T06:27:34.402Z,24.12
2018-12-12T06:30:01.666Z,27.02
2018-12-12T06:32:28.833Z,27.50
2018-12-12T06:34:56.062Z,25.30
2018-12-12T06:37:23.119Z,18.75
2018-12-12T06:39:50.186Z,21.90
2018-12-12T06:42:17.246Z,19.77
2018-12-12T06:44:44.502Z,24.10
2018-12-12T06:47:11.546Z,20.82
2018-12-12T06:49:38.617Z,19.92
2018-12-12T06:52:05.670Z,18.37
2018-12-12T06:54:32.722Z,22.07
2018-12-12T06:56:59.778Z,18.65
2018-12-12T06:59:26.871Z,16.95
2018-12-12T07:01:54.274Z,17.20
2018-12-12T07:04:21.484Z,23.42
2018-12-12T07:06:48.539Z,18.35
2018-12-12T07:09:15.603Z,19.73
2018-12-12T07:11:42.681Z,19.15
2018-12-12T07:14:09.878Z,15.68
2018-12-12T07:16:37.127Z,14.75
2018-12-12T07:19:04.310Z,17.40
2018-12-12T07:21:31.376Z,17.77
2018-12-12T07:23:58.443Z,15.83
2018-12-12T07:26:25.706Z,15.60
2018-12-12T07:28:52.761Z,16.75
2018-12-12T07:31:19.807Z,17.75
2018-12-12T07:33:46.867Z,18.65
2018-12-12T07:36:13.944Z,15.45
2018-12-12T07:38:40.994Z,17.45
2018-12-12T07:41:08.146Z,15.93
2018-12-12T07:43:35.202Z,17.05
2018-12-12T07:46:02.399Z,15.38
2018-12-12T07:48:29.550Z,17.45
2018-12-12T07:50:56.725Z,15.80
2018-12-12T07:53:23.871Z,14.30
2018-12-12T07:55:51.056Z,17.00
2018-12-12T07:58:18.102Z,17.07
2018-12-12T08:00:45.150Z,17.85
2018-12-12T08:03:12.310Z,16.32
2018-12-12T08:05:39.370Z,14.85
2018-12-12T08:08:06.647Z,15.50
2018-12-12T08:10:33.830Z,14.85
2018-12-12T08:13:01.003Z,16.40
2018-12-12T08:15:28.078Z,13.53
2018-12-12T08:17:55.198Z,17.50
2018-12-12T08:20:22.394Z,16.55
2018-12-12T08:22:49.454Z,13.93
2018-12-12T08:25:17.058Z,14.85
2018-12-12T08:27:44.211Z,14.18
2018-12-12T08:30:13.013Z,16.73
2018-12-12T08:32:40.191Z,15.75
2018-12-12T08:35:07.470Z,13.13
2018-12-12T08:37:34.750Z,13.60
2018-12-12T08:40:02.282Z,18.30
2018-12-12T08:42:29.348Z,15.50
2018-12-12T08:44:56.390Z,12.73
2018-12-12T08:47:23.450Z,16.55
2018-12-12T08:49:50.534Z,17.07
2018-12-12T08:52:17.715Z,14.18
2018-12-12T08:54:44.893Z,16.37
2018-12-12T08:57:12.380Z,16.45
2018-12-12T08:59:39.455Z,13.18
2018-12-12T09:02:06.847Z,15.53
2018-12-12T09:04:33.938Z,14.15
2018-12-12T09:07:01.198Z,16.60
2018-12-12T09:09:28.280Z,15.83
2018-12-12T09:11:55.445Z,17.17
2018-12-12T09:14:22.506Z,15.53
2018-12-12T09:16:49.667Z,16.20
2018-12-12T09:19:16.943Z,15.00
2018-12-12T09:21:44.119Z,17.35
2018-12-12T09:24:11.281Z,16.05
2018-12-12T09:26:38.455Z,17.30
2018-12-12T09:29:05.511Z,17.70
2018-12-12T09:31:32.569Z,16.32
2018-12-12T09:33:59.618Z,15.75
2018-12-12T09:36:26.806Z,17.02
2018-12-12T09:38:53.869Z,18.80
2018-12-12T09:41:20.938Z,16.62
2018-12-12T09:43:47.993Z,19.52
2018-12-12T09:46:15.034Z,18.35
2018-12-12T09:48:42.086Z,20.37
2018-12-12T09:51:09.354Z,17.23
2018-12-12T09:53:36.528Z,17.90
2018-12-12T09:56:03.822Z,16.02
2018-12-12T09:58:30.890Z,20.20
2018-12-12T10:00:58.171Z,20.40
2018-12-12T10:03:30.997Z,17.10
2018-12-12T10:05:54.458Z,17.87
2018-12-12T10:08:21.546Z,23.35
2018-12-12T10:10:48.626Z,19.00
2018-12-12T10:13:15.799Z,18.20
2018-12-12T10:15:42.866Z,18.80
2018-12-12T10:18:10.119Z,21.57
2018-12-12T10:20:37.345Z,21.37
2018-12-12T10:23:04.416Z,20.72
2018-12-12T10:25:31.503Z,20.60
2018-12-12T10:27:58.664Z,20.75
2018-12-12T10:30:25.746Z,24.18
2018-12-12T10:32:52.832Z,19.05
2018-12-12T10:35:20.110Z,20.97
2018-12-12T10:37:47.286Z,21.00
2018-12-12T10:40:14.472Z,20.15
2018-12-12T10:42:41.638Z,20.52
2018-12-12T10:45:08.919Z,23.45
2018-12-12T10:47:36.155Z,22.35
2018-12-12T10:50:03.993Z,24.07
2018-12-12T10:52:31.283Z,19.57
2018-12-12T10:54:58.351Z,26.40
2018-12-12T10:57:25.523Z,23.15
2018-12-12T10:59:52.591Z,20.32
2018-12-12T11:02:25.340Z,21.15
2018-12-12T11:04:52.419Z,22.02
2018-12-12T11:07:19.704Z,24.67
2018-12-12T11:09:46.766Z,22.02
2018-12-12T11:12:13.963Z,22.32
2018-12-12T11:14:41.151Z,23.92
2018-12-12T11:17:08.439Z,22.07
2018-12-12T11:19:35.612Z,23.57
2018-12-12T11:22:02.807Z,22.30
2018-12-12T11:24:29.878Z,20.77
2018-12-12T11:26:57.005Z,26.37
2018-12-12T11:29:24.078Z,22.27
2018-12-12T11:31:51.252Z,26.97
2018-12-12T11:34:18.429Z,21.40
2018-12-12T11:36:45.499Z,22.58
2018-12-12T11:39:12.568Z,21.52
2018-12-12T11:41:39.655Z,25.75
2018-12-12T11:44:06.747Z,24.67
2018-12-12T11:46:33.966Z,26.45
2018-12-12T11:49:01.043Z,25.02
2018-12-12T11:51:28.118Z,23.85
2018-12-12T11:53:55.285Z,23.32
2018-12-12T11:56:22.383Z,31.15
2018-12-12T11:58:49.485Z,27.13
2018-12-12T12:01:16.591Z,25.10
2018-12-12T12:03:43.670Z,25.72
2018-12-12T12:06:10.946Z,27.13
2018-12-12T12:08:38.038Z,24.25
2018-12-12T12:11:05.108Z,21.25
2018-12-12T12:13:32.203Z,23.27
2018-12-12T12:15:59.494Z,26.05
2018-12-12T12:18:26.559Z,24.65
2018-12-12T12:20:53.744Z,25.80
2018-12-12T12:23:20.923Z,24.20
2018-12-12T12:25:48.011Z,25.50
2018-12-12T12:28:15.206Z,28.00
2018-12-12T12:30:42.291Z,27.00
2018-12-12T12:33:10.177Z,30.23
2018-12-12T12:35:37.366Z,28.00
2018-12-12T12:38:04.661Z,28.23
2018-12-12T12:40:31.743Z,32.55
2018-12-12T12:42:58.830Z,31.82
2018-12-12T12:45:26.009Z,28.23
2018-12-12T12:47:53.054Z,30.35
2018-12-12T12:50:20.230Z,32.35
2018-12-12T12:52:47.290Z,27.70
2018-12-12T12:55:14.374Z,31.23
2018-12-12T12:57:41.457Z,27.25
2018-12-12T13:00:08.731Z,31.70
2018-12-12T13:02:35.823Z,27.37
2018-12-12T13:05:03.254Z,27.42
2018-12-12T13:07:30.319Z,29.40
2018-12-12T13:09:57.604Z,26.52
2018-12-12T13:12:24.671Z,27.85
2018-12-12T13:14:51.737Z,28.00
2018-12-12T13:17:18.918Z,29.07
2018-12-12T13:19:46.010Z,24.87
2018-12-12T13:22:13.143Z,26.57
2018-12-12T13:24:40.223Z,25.12
2018-12-12T13:27:07.316Z,28.12
2018-12-12T13:29:34.403Z,28.80
2018-12-12T13:32:01.482Z,25.05
2018-12-12T13:34:28.558Z,21.77
2018-12-12T13:36:55.651Z,23.77
2018-12-12T13:39:22.731Z,23.98
2018-12-12T13:41:49.839Z,24.32
2018-12-12T13:44:16.902Z,27.60
2018-12-12T13:46:44.076Z,21.93
2018-12-12T13:49:11.274Z,19.93
2018-12-12T13:51:38.378Z,16.97
2018-12-12T13:54:05.640Z,15.93
2018-12-12T13:56:32.710Z,15.05
2018-12-12T13:58:59.781Z,13.63
2018-12-12T14:01:27.018Z,13.50
2018-12-12T14:03:54.211Z,12.03
2018-12-12T14:06:21.275Z,11.27
2018-12-12T14:08:48.363Z,12.15
2018-12-12T14:11:15.576Z,12.43
2018-12-12T14:13:42.682Z,11.53
2018-12-12T14:16:09.858Z,11.73
2018-12-12T14:18:36.926Z,11.77
2018-12-12T14:21:04.218Z,11.70
2018-12-12T14:23:31.283Z,10.88
2018-12-12T14:25:58.351Z,11.05
2018-12-12T14:28:25.427Z,11.28
2018-12-12T14:30:52.615Z,12.03
2018-12-12T14:33:19.695Z,11.13
2018-12-12T14:35:47.003Z,10.63
2018-12-12T14:38:14.071Z,9.77
2018-12-12T14:40:41.145Z,11.18
2018-12-12T14:43:08.215Z,10.43
2018-12-12T14:45:35.282Z,11.35
2018-12-12T14:48:02.444Z,10.67
2018-12-12T14:50:29.611Z,10.57
2018-12-12T14:52:56.675Z,11.40
2018-12-12T14:55:23.767Z,11.07
2018-12-12T14:57:50.958Z,10.38
2018-12-12T15:00:18.234Z,9.10
2018-12-12T15:02:45.302Z,9.30
2018-12-12T15:05:12.574Z,10.27
2018-12-12T15:07:39.650Z,9.17
2018-12-12T15:10:06.943Z,9.48
2018-12-12T15:12:34.060Z,9.88
2018-12-12T15:15:01.134Z,10.05
2018-12-12T15:17:28.203Z,10.35
2018-12-12T15:19:55.274Z,10.23
2018-12-12T15:22:23.075Z,9.08
2018-12-12T15:24:50.263Z,9.50
2018-12-12T15:27:17.446Z,9.93
2018-12-12T15:29:44.635Z,9.53
2018-12-12T15:32:11.731Z,9.40
2018-12-12T15:34:42.311Z,9.78
2018-12-12T15:37:07.878Z,10.00
2018-12-12T15:39:34.938Z,9.45
2018-12-12T15:42:02.026Z,9.60
2018-12-12T15:44:29.111Z,9.95
2018-12-12T15:46:56.163Z,10.58
2018-12-12T15:49:23.374Z,10.75
2018-12-12T15:51:50.567Z,9.48
2018-12-12T15:54:17.642Z,10.13
2018-12-12T15:56:44.735Z,10.43
2018-12-12T15:59:11.802Z,10.85
2018-12-12T16:01:38.896Z,11.03
2018-12-12T16:04:05.986Z,10.50
2018-12-12T16:06:33.175Z,10.72
2018-12-12T16:09:00.248Z,11.85
2018-12-12T16:11:27.310Z,11.43
2018-12-12T16:13:54.382Z,12.50
2018-12-12T16:16:21.458Z,11.53
2018-12-12T16:18:48.528Z,11.70
2018-12-12T16:21:15.578Z,11.80
2018-12-12T16:23:42.636Z,11.68
2018-12-12T16:26:09.823Z,11.55
2018-12-12T16:28:36.886Z,12.05
2018-12-12T16:31:04.051Z,11.28
2018-12-12T16:33:31.112Z,11.80
2018-12-12T16:35:58.191Z,11.75
2018-12-12T16:38:25.368Z,11.57
2018-12-12T16:40:52.713Z,12.13
2018-12-12T16:43:19.782Z,12.58
2018-12-12T16:45:46.958Z,11.97
2018-12-12T16:48:14.016Z,11.83
2018-12-12T16:50:41.239Z,12.35
2018-12-12T16:53:08.322Z,12.50
2018-12-12T16:55:35.602Z,12.33
2018-12-12T16:58:02.790Z,12.98
2018-12-12T17:00:29.889Z,12.05
2018-12-12T17:02:57.148Z,11.73
2018-12-12T17:05:24.446Z,13.10
2018-12-12T17:07:51.714Z,12.28
2018-12-12T17:10:18.887Z,11.55
2018-12-12T17:12:46.110Z,12.03
2018-12-12T17:15:13.298Z,11.65
2018-12-12T17:17:40.367Z,11.08
2018-12-12T17:20:07.691Z,10.93
2018-12-12T17:22:34.871Z,11.35
2018-12-12T17:25:02.159Z,11.12
2018-12-12T17:27:29.342Z,11.00
2018-12-12T17:29:56.433Z,10.93
2018-12-12T17:32:23.630Z,10.30
2018-12-12T17:34:50.802Z,11.43
2018-12-12T17:37:17.862Z,10.65
2018-12-12T17:39:45.038Z,10.50
2018-12-12T17:42:12.102Z,10.20
2018-12-12T17:44:39.279Z,10.85
2018-12-12T17:47:06.443Z,10.90
2018-12-12T17:49:33.511Z,10.50
2018-12-12T17:52:00.618Z,10.72
2018-12-12T17:54:27.686Z,11.22
2018-12-12T17:56:54.898Z,10.40
2018-12-12T17:59:22.066Z,10.48
2018-12-12T18:01:49.162Z,11.00
2018-12-12T18:04:16.340Z,11.45
2018-12-12T18:06:43.522Z,10.93
2018-12-12T18:09:10.758Z,12.25
2018-12-12T18:11:37.850Z,11.30
2018-12-12T18:14:05.040Z,11.30
2018-12-12T18:16:32.099Z,12.43
2018-12-12T18:18:59.270Z,12.28
2018-12-12T18:21:26.448Z,12.13
2018-12-12T18:23:53.622Z,12.20
2018-12-12T18:26:20.689Z,11.73
2018-12-12T18:28:47.746Z,11.48
2018-12-12T18:31:14.808Z,11.20
2018-12-12T18:33:41.872Z,11.30
2018-12-12T18:36:09.171Z,11.85
2018-12-12T18:38:36.458Z,11.22
2018-12-12T18:41:03.647Z,11.97
2018-12-12T18:43:30.728Z,11.88
2018-12-12T18:45:57.802Z,11.83
2018-12-12T18:48:24.864Z,12.82
2018-12-12T18:50:52.050Z,12.00
2018-12-12T18:53:19.226Z,13.22
2018-12-12T18:55:46.296Z,12.53
2018-12-12T18:58:13.371Z,11.65
2018-12-12T19:00:41.174Z,11.95
2018-12-12T19:03:08.364Z,12.40
2018-12-12T19:05:35.446Z,12.75
2018-12-12T19:08:02.625Z,12.33
2018-12-12T19:10:29.803Z,12.80
2018-12-12T19:12:57.098Z,12.13
2018-12-12T19:15:24.287Z,12.95
2018-12-12T19:17:51.418Z,13.68
2018-12-12T19:20:18.511Z,14.30
2018-12-12T19:22:45.595Z,13.70
2018-12-12T19:25:12.786Z,13.98
2018-12-12T19:27:39.962Z,13.45
2018-12-12T19:30:11.637Z,13.95
2018-12-12T19:32:38.828Z,12.60
2018-12-12T19:35:07.276Z,13.03
2018-12-12T19:37:34.454Z,13.88
2018-12-12T19:40:01.756Z,14.83
2018-12-12T19:42:28.818Z,14.58
2018-12-12T19:44:55.887Z,15.15
2018-12-12T19:47:23.228Z,14.47
2018-12-12T19:49:50.403Z,14.50
2018-12-12T19:52:17.578Z,14.55
2018-12-12T19:54:44.650Z,13.22
2018-12-12T19:57:11.828Z,14.90
2018-12-12T19:59:38.888Z,15.00
2018-12-12T20:02:06.090Z,13.88
2018-12-12T20:04:33.267Z,14.03
2018-12-12T20:07:00.354Z,15.72
2018-12-12T20:09:27.648Z,14.73
2018-12-12T20:11:54.707Z,13.93
2018-12-12T20:14:21.775Z,13.78
2018-12-12T20:16:48.935Z,14.50
2018-12-12T20:19:16.011Z,14.18
2018-12-12T20:21:43.098Z,14.47
2018-12-12T20:24:10.156Z,14.07
2018-12-12T20:26:37.219Z,13.58
2018-12-12T20:29:04.406Z,14.25
2018-12-12T20:31:31.692Z,14.20
2018-12-12T20:33:58.754Z,14.73
2018-12-12T20:36:25.926Z,14.25
2018-12-12T20:38:52.998Z,16.07
2018-12-12T20:41:20.062Z,14.10
2018-12-12T20:43:47.136Z,14.95
2018-12-12T20:46:14.203Z,15.18
2018-12-12T20:48:41.375Z,16.12
2018-12-12T20:51:08.427Z,14.68
2018-12-12T20:53:35.512Z,16.35
2018-12-12T20:56:02.691Z,14.40
2018-12-12T20:58:29.762Z,14.95
2018-12-12T21:00:56.820Z,14.73
2018-12-12T21:03:23.986Z,14.87
2018-12-12T21:05:54.485Z,16.42
2018-12-12T21:08:20.295Z,16.73
2018-12-12T21:10:47.458Z,15.10
2018-12-12T21:13:14.635Z,16.45
2018-12-12T21:15:46.523Z,17.15
2018-12-12T21:18:13.589Z,16.10
2018-12-12T21:20:40.763Z,16.48
2018-12-12T21:23:07.834Z,14.95
2018-12-12T21:25:35.207Z,15.68
2018-12-12T21:28:02.386Z,15.60
2018-12-12T21:30:30.135Z,16.02
2018-12-12T21:32:57.343Z,14.83
2018-12-12T21:35:24.431Z,16.23
2018-12-12T21:37:51.486Z,15.28
2018-12-12T21:40:18.671Z,16.32
2018-12-12T21:42:45.748Z,16.70
2018-12-12T21:45:12.919Z,17.23
2018-12-12T21:47:39.994Z,15.98
2018-12-12T21:50:07.271Z,17.70
2018-12-12T21:52:34.340Z,15.93
2018-12-12T21:55:01.410Z,16.20
2018-12-12T21:57:28.570Z,16.42
2018-12-12T21:59:55.750Z,16.85
2018-12-12T22:02:22.823Z,15.05
2018-12-12T22:04:50.011Z,15.20
2018-12-12T22:07:17.178Z,16.15
2018-12-12T22:09:44.257Z,17.45
2018-12-12T22:12:11.322Z,16.20
2018-12-12T22:14:38.383Z,16.12
2018-12-12T22:17:05.573Z,16.93
2018-12-12T22:19:32.643Z,16.05
2018-12-12T22:21:59.815Z,17.20
2018-12-12T22:24:26.987Z,17.90
2018-12-12T22:26:54.051Z,18.67
2018-12-12T22:29:21.142Z,16.57
2018-12-12T22:31:48.228Z,17.20
2018-12-12T22:34:15.302Z,16.15
2018-12-12T22:36:42.411Z,18.92
2018-12-12T22:39:09.481Z,17.45
2018-12-12T22:41:36.570Z,18.12
2018-12-12T22:44:03.729Z,16.48
2018-12-12T22:46:30.887Z,18.92
2018-12-12T22:48:57.943Z,17.37
2018-12-12T22:51:24.994Z,18.20
2018-12-12T22:53:52.034Z,17.77
2018-12-12T22:56:19.097Z,17.92
2018-12-12T22:58:46.148Z,17.87
2018-12-12T23:01:19.274Z,16.97
2018-12-12T23:03:46.344Z,17.65
2018-12-12T23:06:13.610Z,18.30
2018-12-12T23:08:40.822Z,17.40
2018-12-12T23:11:07.999Z,17.52
2018-12-12T23:13:35.058Z,17.55
2018-12-12T23:16:02.226Z,18.98
2018-12-12T23:18:29.390Z,17.25
2018-12-12T23:20:56.543Z,17.65
2018-12-12T23:23:23.720Z,18.32
2018-12-12T23:25:50.895Z,17.50
2018-12-12T23:28:18.066Z,19.20
2018-12-12T23:30:45.134Z,16.97
2018-12-12T23:33:12.186Z,19.57
2018-12-12T23:35:39.246Z,18.95
2018-12-12T23:38:06.423Z,18.57
2018-12-12T23:40:33.599Z,19.12
2018-12-12T23:43:00.674Z,19.02
2018-12-12T23:45:27.822Z,18.42
2018-12-12T23:47:54.874Z,18.55
2018-12-12T23:50:22.044Z,19.95
2018-12-12T23:52:49.236Z,18.37
2018-12-12T23:55:16.307Z,18.00
2018-12-12T23:57:43.375Z,19.77
